sensor_id;sensor_type;location;lat;lon;timestamp;temperature;humidity
418;DHT22;49;48.530;9.200;2023-04-06T00:00:01;10.20;22.00
418;DHT22;49;48.530;9.200;2023-04-06T00:02:33;10.00;22.30
418;DHT22;49;48.530;9.200;2023-04-06T00:05:03;9.90;20.50
418;DHT22;49;48.530;9.200;2023-04-06T00:07:36;10.30;21.30
418;DHT22;49;48.530;9.200;2023-04-06T00:10:09;10.80;22.80
418;DHT22;49;48.530;9.200;2023-04-06T00:12:40;11.30;22.70
418;DHT22;49;48.530;9.200;2023-04-06T00:15:10;11.10;16.10
418;DHT22;49;48.530;9.200;2023-04-06T00:17:40;11.30;22.00
418;DHT22;49;48.530;9.200;2023-04-06T00:20:12;11.30;19.00
418;DHT22;49;48.530;9.200;2023-04-06T00:22:40;10.90;19.90
418;DHT22;49;48.530;9.200;2023-04-06T00:25:08;11.30;22.70
418;DHT22;49;48.530;9.200;2023-04-06T00:27:42;11.70;21.60
418;DHT22;49;48.530;9.200;2023-04-06T00:30:17;11.80;20.60
418;DHT22;49;48.530;9.200;2023-04-06T00:32:55;11.60;19.50
418;DHT22;49;48.530;9.200;2023-04-06T00:35:24;10.60;14.80
418;DHT22;49;48.530;9.200;2023-04-06T00:37:54;9.40;16.30
418;DHT22;49;48.530;9.200;2023-04-06T00:40:22;8.10;17.80
418;DHT22;49;48.530;9.200;2023-04-06T00:42:55;7.60;22.10
418;DHT22;49;48.530;9.200;2023-04-06T00:45:23;7.30;20.80
418;DHT22;49;48.530;9.200;2023-04-06T00:47:51;7.30;30.90
418;DHT22;49;48.530;9.200;2023-04-06T00:50:19;7.90;29.30
418;DHT22;49;48.530;9.200;2023-04-06T00:53:00;8.90;29.20
418;DHT22;49;48.530;9.200;2023-04-06T00:55:28;9.10;21.10
418;DHT22;49;48.530;9.200;2023-04-06T00:58:02;9.30;20.30
418;DHT22;49;48.530;9.200;2023-04-06T01:00:30;9.70;25.70
418;DHT22;49;48.530;9.200;2023-04-06T01:03:03;9.60;21.40
418;DHT22;49;48.530;9.200;2023-04-06T01:05:34;9.40;20.70
418;DHT22;49;48.530;9.200;2023-04-06T01:08:05;9.70;22.20
418;DHT22;49;48.530;9.200;2023-04-06T01:10:33;9.70;20.40
418;DHT22;49;48.530;9.200;2023-04-06T01:13:05;9.30;23.30
418;DHT22;49;48.530;9.200;2023-04-06T01:15:35;9.40;25.00
418;DHT22;49;48.530;9.200;2023-04-06T01:18:04;10.00;26.50
418;DHT22;49;48.530;9.200;2023-04-06T01:20:37;10.30;22.50
418;DHT22;49;48.530;9.200;2023-04-06T01:23:08;10.60;17.80
418;DHT22;49;48.530;9.200;2023-04-06T01:25:36;9.30;17.30
418;DHT22;49;48.530;9.200;2023-04-06T01:28:05;9.20;21.70
418;DHT22;49;48.530;9.200;2023-04-06T01:30:33;9.20;23.50
418;DHT22;49;48.530;9.200;2023-04-06T01:33:03;9.70;24.40
418;DHT22;49;48.530;9.200;2023-04-06T01:35:32;9.80;19.80
418;DHT22;49;48.530;9.200;2023-04-06T01:38:01;9.60;19.30
418;DHT22;49;48.530;9.200;2023-04-06T01:40:33;10.00;24.20
418;DHT22;49;48.530;9.200;2023-04-06T01:43:08;10.40;23.20
418;DHT22;49;48.530;9.200;2023-04-06T01:45:37;10.30;21.10
418;DHT22;49;48.530;9.200;2023-04-06T01:48:09;10.70;23.10
418;DHT22;49;48.530;9.200;2023-04-06T01:50:41;10.50;23.80
418;DHT22;49;48.530;9.200;2023-04-06T01:53:08;10.70;19.00
418;DHT22;49;48.530;9.200;2023-04-06T01:55:37;10.30;23.10
418;DHT22;49;48.530;9.200;2023-04-06T02:01:01;10.90;23.50
418;DHT22;49;48.530;9.200;2023-04-06T02:03:30;10.80;18.60
418;DHT22;49;48.530;9.200;2023-04-06T02:06:03;10.60;21.50
418;DHT22;49;48.530;9.200;2023-04-06T02:08:32;10.50;19.00
418;DHT22;49;48.530;9.200;2023-04-06T02:11:06;10.20;18.30
418;DHT22;49;48.530;9.200;2023-04-06T02:13:35;10.00;20.20
418;DHT22;49;48.530;9.200;2023-04-06T02:16:05;10.30;24.90
418;DHT22;49;48.530;9.200;2023-04-06T02:18:33;10.70;23.40
418;DHT22;49;48.530;9.200;2023-04-06T02:21:13;10.60;21.10
418;DHT22;49;48.530;9.200;2023-04-06T02:23:43;10.70;19.90
418;DHT22;49;48.530;9.200;2023-04-06T02:26:11;10.70;22.50
418;DHT22;49;48.530;9.200;2023-04-06T02:28:51;11.00;22.80
418;DHT22;49;48.530;9.200;2023-04-06T02:31:29;10.80;22.90
418;DHT22;49;48.530;9.200;2023-04-06T02:33:58;10.70;22.40
418;DHT22;49;48.530;9.200;2023-04-06T02:36:28;11.00;22.70
418;DHT22;49;48.530;9.200;2023-04-06T02:38:55;11.20;21.50
418;DHT22;49;48.530;9.200;2023-04-06T02:41:26;11.20;19.50
418;DHT22;49;48.530;9.200;2023-04-06T02:43:56;11.20;21.90
418;DHT22;49;48.530;9.200;2023-04-06T02:46:25;11.40;21.10
418;DHT22;49;48.530;9.200;2023-04-06T02:48:52;11.20;21.80
418;DHT22;49;48.530;9.200;2023-04-06T02:51:19;11.40;21.80
418;DHT22;49;48.530;9.200;2023-04-06T02:53:49;11.60;22.10
418;DHT22;49;48.530;9.200;2023-04-06T02:56:16;11.50;21.00
418;DHT22;49;48.530;9.200;2023-04-06T02:58:46;11.60;19.00
418;DHT22;49;48.530;9.200;2023-04-06T03:01:14;11.00;18.50
418;DHT22;49;48.530;9.200;2023-04-06T03:03:44;10.20;19.00
418;DHT22;49;48.530;9.200;2023-04-06T03:06:16;10.40;23.20
418;DHT22;49;48.530;9.200;2023-04-06T03:08:46;10.50;20.00
418;DHT22;49;48.530;9.200;2023-04-06T03:11:14;10.40;19.70
418;DHT22;49;48.530;9.200;2023-04-06T03:13:41;9.90;19.40
418;DHT22;49;48.530;9.200;2023-04-06T03:16:12;9.40;18.90
418;DHT22;49;48.530;9.200;2023-04-06T03:18:39;9.40;19.40
418;DHT22;49;48.530;9.200;2023-04-06T03:21:07;9.20;22.50
418;DHT22;49;48.530;9.200;2023-04-06T03:23:34;9.10;20.10
418;DHT22;49;48.530;9.200;2023-04-06T03:26:05;9.20;22.00
418;DHT22;49;48.530;9.200;2023-04-06T03:28:32;9.10;24.00
418;DHT22;49;48.530;9.200;2023-04-06T03:31:02;9.10;25.40
418;DHT22;49;48.530;9.200;2023-04-06T03:33:36;9.40;25.00
418;DHT22;49;48.530;9.200;2023-04-06T03:36:04;9.80;27.50
418;DHT22;49;48.530;9.200;2023-04-06T03:38:32;9.80;25.70
418;DHT22;49;48.530;9.200;2023-04-06T03:40:59;10.10;24.50
418;DHT22;49;48.530;9.200;2023-04-06T03:43:27;10.00;23.00
418;DHT22;49;48.530;9.200;2023-04-06T03:45:54;9.80;20.90
418;DHT22;49;48.530;9.200;2023-04-06T03:48:22;9.80;22.00
418;DHT22;49;48.530;9.200;2023-04-06T03:50:51;10.00;22.90
418;DHT22;49;48.530;9.200;2023-04-06T03:53:18;10.10;22.70
418;DHT22;49;48.530;9.200;2023-04-06T03:55:48;9.50;19.70
418;DHT22;49;48.530;9.200;2023-04-06T03:58:16;9.60;26.00
418;DHT22;49;48.530;9.200;2023-04-06T04:00:45;9.80;25.40
418;DHT22;49;48.530;9.200;2023-04-06T04:03:19;9.80;23.00
418;DHT22;49;48.530;9.200;2023-04-06T04:05:52;9.60;22.60
418;DHT22;49;48.530;9.200;2023-04-06T04:08:22;9.70;22.10
418;DHT22;49;48.530;9.200;2023-04-06T04:10:55;9.30;23.20
418;DHT22;49;48.530;9.200;2023-04-06T04:13:36;9.30;21.90
418;DHT22;49;48.530;9.200;2023-04-06T04:16:09;9.40;24.30
418;DHT22;49;48.530;9.200;2023-04-06T04:18:36;9.10;23.30
418;DHT22;49;48.530;9.200;2023-04-06T04:21:05;9.10;24.10
418;DHT22;49;48.530;9.200;2023-04-06T04:23:35;9.10;24.80
418;DHT22;49;48.530;9.200;2023-04-06T04:26:04;9.00;23.40
418;DHT22;49;48.530;9.200;2023-04-06T04:28:31;9.20;25.10
418;DHT22;49;48.530;9.200;2023-04-06T04:31:00;9.70;25.80
418;DHT22;49;48.530;9.200;2023-04-06T04:33:27;9.30;20.00
418;DHT22;49;48.530;9.200;2023-04-06T04:35:54;9.30;22.40
418;DHT22;49;48.530;9.200;2023-04-06T04:38:23;9.20;22.50
418;DHT22;49;48.530;9.200;2023-04-06T04:40:50;9.40;25.80
418;DHT22;49;48.530;9.200;2023-04-06T04:43:18;9.50;24.60
418;DHT22;49;48.530;9.200;2023-04-06T04:45:46;9.90;26.30
418;DHT22;49;48.530;9.200;2023-04-06T04:48:13;10.00;19.90
418;DHT22;49;48.530;9.200;2023-04-06T04:50:40;9.70;23.40
418;DHT22;49;48.530;9.200;2023-04-06T04:53:08;9.70;24.30
418;DHT22;49;48.530;9.200;2023-04-06T04:55:49;9.80;25.00
418;DHT22;49;48.530;9.200;2023-04-06T04:58:23;9.90;20.60
418;DHT22;49;48.530;9.200;2023-04-06T05:00:54;10.20;22.30
418;DHT22;49;48.530;9.200;2023-04-06T05:03:27;10.40;23.80
418;DHT22;49;48.530;9.200;2023-04-06T05:09:31;10.10;22.20
418;DHT22;49;48.530;9.200;2023-04-06T05:12:02;9.80;22.80
418;DHT22;49;48.530;9.200;2023-04-06T05:14:40;9.90;22.30
418;DHT22;49;48.530;9.200;2023-04-06T05:17:21;9.70;23.10
418;DHT22;49;48.530;9.200;2023-04-06T05:19:51;9.90;24.30
418;DHT22;49;48.530;9.200;2023-04-06T05:22:20;9.90;22.90
418;DHT22;49;48.530;9.200;2023-04-06T05:24:52;9.70;25.40
418;DHT22;49;48.530;9.200;2023-04-06T05:27:26;9.80;22.20
418;DHT22;49;48.530;9.200;2023-04-06T05:29:54;9.50;20.50
418;DHT22;49;48.530;9.200;2023-04-06T05:32:38;9.60;22.60
418;DHT22;49;48.530;9.200;2023-04-06T05:35:06;9.60;24.40
418;DHT22;49;48.530;9.200;2023-04-06T05:37:38;10.00;21.50
418;DHT22;49;48.530;9.200;2023-04-06T05:40:07;10.70;18.70
418;DHT22;49;48.530;9.200;2023-04-06T05:42:38;11.50;18.20
418;DHT22;49;48.530;9.200;2023-04-06T05:45:16;12.10;16.30
418;DHT22;49;48.530;9.200;2023-04-06T05:47:44;12.90;13.00
418;DHT22;49;48.530;9.200;2023-04-06T05:50:14;13.10;13.20
418;DHT22;49;48.530;9.200;2023-04-06T05:52:52;13.70;13.60
418;DHT22;49;48.530;9.200;2023-04-06T05:55:20;14.30;12.20
418;DHT22;49;48.530;9.200;2023-04-06T05:57:49;14.50;12.00
418;DHT22;49;48.530;9.200;2023-04-06T06:00:29;14.90;8.60
418;DHT22;49;48.530;9.200;2023-04-06T06:02:57;15.00;9.30
418;DHT22;49;48.530;9.200;2023-04-06T06:05:24;15.40;9.30
418;DHT22;49;48.530;9.200;2023-04-06T06:07:52;15.80;9.40
418;DHT22;49;48.530;9.200;2023-04-06T06:10:20;16.40;9.30
418;DHT22;49;48.530;9.200;2023-04-06T06:13:02;16.40;8.70
418;DHT22;49;48.530;9.200;2023-04-06T06:15:34;16.40;8.70
418;DHT22;49;48.530;9.200;2023-04-06T06:18:05;16.70;8.30
418;DHT22;49;48.530;9.200;2023-04-06T06:20:40;16.50;8.00
418;DHT22;49;48.530;9.200;2023-04-06T06:23:27;17.10;7.40
418;DHT22;49;48.530;9.200;2023-04-06T06:25:58;17.70;6.80
418;DHT22;49;48.530;9.200;2023-04-06T06:28:32;17.40;7.20
418;DHT22;49;48.530;9.200;2023-04-06T06:31:00;17.60;7.00
418;DHT22;49;48.530;9.200;2023-04-06T06:33:34;18.10;7.20
418;DHT22;49;48.530;9.200;2023-04-06T06:36:01;18.70;6.10
418;DHT22;49;48.530;9.200;2023-04-06T06:38:28;18.90;6.70
418;DHT22;49;48.530;9.200;2023-04-06T06:40:56;19.30;5.60
418;DHT22;49;48.530;9.200;2023-04-06T06:43:26;18.90;5.80
418;DHT22;49;48.530;9.200;2023-04-06T06:45:58;19.00;5.70
418;DHT22;49;48.530;9.200;2023-04-06T06:48:26;18.90;5.70
418;DHT22;49;48.530;9.200;2023-04-06T06:50:54;19.00;5.40
418;DHT22;49;48.530;9.200;2023-04-06T06:53:23;19.80;4.80
418;DHT22;49;48.530;9.200;2023-04-06T06:55:51;19.90;4.30
418;DHT22;49;48.530;9.200;2023-04-06T06:58:28;19.70;4.60
418;DHT22;49;48.530;9.200;2023-04-06T07:00:58;20.10;3.90
418;DHT22;49;48.530;9.200;2023-04-06T07:03:28;20.30;3.90
418;DHT22;49;48.530;9.200;2023-04-06T07:05:57;20.20;3.80
418;DHT22;49;48.530;9.200;2023-04-06T07:08:30;20.50;3.10
418;DHT22;49;48.530;9.200;2023-04-06T07:10:59;20.60;2.50
418;DHT22;49;48.530;9.200;2023-04-06T07:13:26;20.60;2.50
418;DHT22;49;48.530;9.200;2023-04-06T07:15:55;20.50;3.30
418;DHT22;49;48.530;9.200;2023-04-06T07:18:26;20.90;2.60
418;DHT22;49;48.530;9.200;2023-04-06T07:20:54;21.30;2.20
418;DHT22;49;48.530;9.200;2023-04-06T07:23:22;21.10;3.20
418;DHT22;49;48.530;9.200;2023-04-06T07:25:50;21.10;2.20
418;DHT22;49;48.530;9.200;2023-04-06T07:28:19;21.20;1.80
418;DHT22;49;48.530;9.200;2023-04-06T07:30:49;21.20;1.30
418;DHT22;49;48.530;9.200;2023-04-06T07:33:17;21.40;2.60
418;DHT22;49;48.530;9.200;2023-04-06T07:35:47;21.40;1.80
418;DHT22;49;48.530;9.200;2023-04-06T07:38:34;21.20;1.80
418;DHT22;49;48.530;9.200;2023-04-06T07:41:13;20.90;2.10
418;DHT22;49;48.530;9.200;2023-04-06T07:43:52;21.00;1.80
418;DHT22;49;48.530;9.200;2023-04-06T07:46:24;21.30;1.60
418;DHT22;49;48.530;9.200;2023-04-06T07:49:10;21.00;1.70
418;DHT22;49;48.530;9.200;2023-04-06T07:58:28;20.80;1.70
418;DHT22;49;48.530;9.200;2023-04-06T08:01:01;21.00;1.80
418;DHT22;49;48.530;9.200;2023-04-06T08:03:52;21.00;1.50
418;DHT22;49;48.530;9.200;2023-04-06T08:06:48;21.60;1.00
418;DHT22;49;48.530;9.200;2023-04-06T08:09:41;21.40;1.60
418;DHT22;49;48.530;9.200;2023-04-06T08:12:22;21.80;2.20
418;DHT22;49;48.530;9.200;2023-04-06T08:14:54;21.30;1.60
418;DHT22;49;48.530;9.200;2023-04-06T08:26:33;21.30;2.10
418;DHT22;49;48.530;9.200;2023-04-06T08:29:00;20.80;2.10
418;DHT22;49;48.530;9.200;2023-04-06T08:31:54;20.10;2.80
418;DHT22;49;48.530;9.200;2023-04-06T08:34:24;20.60;2.40
418;DHT22;49;48.530;9.200;2023-04-06T08:36:53;20.10;3.00
418;DHT22;49;48.530;9.200;2023-04-06T08:39:23;19.80;3.10
418;DHT22;49;48.530;9.200;2023-04-06T08:41:52;19.40;4.10
418;DHT22;49;48.530;9.200;2023-04-06T08:44:23;19.70;3.30
418;DHT22;49;48.530;9.200;2023-04-06T08:46:52;19.50;3.40
418;DHT22;49;48.530;9.200;2023-04-06T08:49:19;19.70;3.10
418;DHT22;49;48.530;9.200;2023-04-06T08:51:48;19.50;3.40
418;DHT22;49;48.530;9.200;2023-04-06T08:54:16;19.60;3.10
418;DHT22;49;48.530;9.200;2023-04-06T08:56:43;19.90;2.40
418;DHT22;49;48.530;9.200;2023-04-06T08:59:12;19.80;2.20
418;DHT22;49;48.530;9.200;2023-04-06T09:01:40;19.30;2.80
418;DHT22;49;48.530;9.200;2023-04-06T09:04:11;18.90;2.90
418;DHT22;49;48.530;9.200;2023-04-06T09:06:41;18.70;3.60
418;DHT22;49;48.530;9.200;2023-04-06T09:09:09;18.10;3.30
418;DHT22;49;48.530;9.200;2023-04-06T09:11:46;18.10;3.70
418;DHT22;49;48.530;9.200;2023-04-06T09:14:16;17.60;3.10
418;DHT22;49;48.530;9.200;2023-04-06T09:16:48;16.90;3.90
418;DHT22;49;48.530;9.200;2023-04-06T09:19:19;16.80;6.80
418;DHT22;49;48.530;9.200;2023-04-06T09:22:02;16.80;5.00
418;DHT22;49;48.530;9.200;2023-04-06T09:24:42;17.10;6.70
418;DHT22;49;48.530;9.200;2023-04-06T09:27:14;17.40;5.00
418;DHT22;49;48.530;9.200;2023-04-06T09:30:03;16.90;10.30
418;DHT22;49;48.530;9.200;2023-04-06T09:32:44;16.90;3.40
418;DHT22;49;48.530;9.200;2023-04-06T09:35:16;16.80;4.40
418;DHT22;49;48.530;9.200;2023-04-06T09:37:46;16.70;4.80
418;DHT22;49;48.530;9.200;2023-04-06T09:40:14;16.60;4.20
418;DHT22;49;48.530;9.200;2023-04-06T09:42:46;16.70;3.30
418;DHT22;49;48.530;9.200;2023-04-06T09:45:17;16.60;5.40
418;DHT22;49;48.530;9.200;2023-04-06T09:47:46;16.70;6.70
418;DHT22;49;48.530;9.200;2023-04-06T09:50:16;16.80;4.00
418;DHT22;49;48.530;9.200;2023-04-06T09:52:47;17.00;4.00
418;DHT22;49;48.530;9.200;2023-04-06T09:55:23;16.70;4.10
418;DHT22;49;48.530;9.200;2023-04-06T09:57:57;16.70;4.50
418;DHT22;49;48.530;9.200;2023-04-06T10:00:25;17.00;3.70
418;DHT22;49;48.530;9.200;2023-04-06T10:02:58;16.90;3.50
418;DHT22;49;48.530;9.200;2023-04-06T10:05:34;16.80;3.70
418;DHT22;49;48.530;9.200;2023-04-06T10:08:08;16.90;4.00
418;DHT22;49;48.530;9.200;2023-04-06T10:10:36;17.20;3.60
418;DHT22;49;48.530;9.200;2023-04-06T10:13:07;16.50;3.00
418;DHT22;49;48.530;9.200;2023-04-06T10:15:39;15.90;3.40
418;DHT22;49;48.530;9.200;2023-04-06T10:18:07;16.10;5.50
418;DHT22;49;48.530;9.200;2023-04-06T10:20:41;16.50;5.60
418;DHT22;49;48.530;9.200;2023-04-06T10:23:21;16.80;3.30
418;DHT22;49;48.530;9.200;2023-04-06T10:25:54;16.80;2.40
418;DHT22;49;48.530;9.200;2023-04-06T10:28:23;17.10;3.20
418;DHT22;49;48.530;9.200;2023-04-06T10:31:02;17.00;3.00
418;DHT22;49;48.530;9.200;2023-04-06T10:33:31;17.00;4.00
418;DHT22;49;48.530;9.200;2023-04-06T10:36:11;17.10;2.40
418;DHT22;49;48.530;9.200;2023-04-06T10:38:42;16.80;2.90
418;DHT22;49;48.530;9.200;2023-04-06T10:41:11;17.10;1.70
418;DHT22;49;48.530;9.200;2023-04-06T10:43:40;17.40;2.00
418;DHT22;49;48.530;9.200;2023-04-06T10:46:13;17.30;1.40
418;DHT22;49;48.530;9.200;2023-04-06T10:48:44;17.10;3.10
418;DHT22;49;48.530;9.200;2023-04-06T10:51:25;17.10;1.90
418;DHT22;49;48.530;9.200;2023-04-06T10:53:57;16.90;1.00
418;DHT22;49;48.530;9.200;2023-04-06T10:56:31;17.50;5.20
418;DHT22;49;48.530;9.200;2023-04-06T10:59:02;17.50;1.00
418;DHT22;49;48.530;9.200;2023-04-06T11:04:18;17.00;1.00
418;DHT22;49;48.530;9.200;2023-04-06T11:06:51;16.70;1.00
418;DHT22;49;48.530;9.200;2023-04-06T11:09:26;16.70;1.00
418;DHT22;49;48.530;9.200;2023-04-06T11:11:54;16.50;1.30
418;DHT22;49;48.530;9.200;2023-04-06T11:14:22;16.40;1.60
418;DHT22;49;48.530;9.200;2023-04-06T11:16:55;16.50;3.10
418;DHT22;49;48.530;9.200;2023-04-06T11:19:37;17.10;1.70
418;DHT22;49;48.530;9.200;2023-04-06T11:22:16;17.20;1.00
418;DHT22;49;48.530;9.200;2023-04-06T11:24:52;17.50;1.00
418;DHT22;49;48.530;9.200;2023-04-06T11:27:38;17.50;1.00
418;DHT22;49;48.530;9.200;2023-04-06T11:30:17;17.90;3.20
418;DHT22;49;48.530;9.200;2023-04-06T11:32:47;17.80;1.00
418;DHT22;49;48.530;9.200;2023-04-06T11:35:20;17.90;1.00
418;DHT22;49;48.530;9.200;2023-04-06T11:37:52;17.60;1.00
418;DHT22;49;48.530;9.200;2023-04-06T11:40:22;17.20;2.00
418;DHT22;49;48.530;9.200;2023-04-06T11:42:54;17.10;1.00
418;DHT22;49;48.530;9.200;2023-04-06T11:45:22;17.40;1.00
418;DHT22;49;48.530;9.200;2023-04-06T11:47:59;17.80;2.60
418;DHT22;49;48.530;9.200;2023-04-06T11:53:43;17.50;1.00
418;DHT22;49;48.530;9.200;2023-04-06T11:56:21;17.50;1.00
418;DHT22;49;48.530;9.200;2023-04-06T11:58:50;17.30;1.00
418;DHT22;49;48.530;9.200;2023-04-06T12:01:19;17.00;1.00
418;DHT22;49;48.530;9.200;2023-04-06T12:03:47;17.00;1.00
418;DHT22;49;48.530;9.200;2023-04-06T12:06:17;17.50;1.00
418;DHT22;49;48.530;9.200;2023-04-06T12:08:49;17.60;1.00
418;DHT22;49;48.530;9.200;2023-04-06T12:11:17;17.60;1.00
418;DHT22;49;48.530;9.200;2023-04-06T12:13:45;17.70;1.00
418;DHT22;49;48.530;9.200;2023-04-06T12:16:13;18.00;1.00
418;DHT22;49;48.530;9.200;2023-04-06T12:18:41;18.00;1.00
418;DHT22;49;48.530;9.200;2023-04-06T12:21:13;18.00;1.00
418;DHT22;49;48.530;9.200;2023-04-06T12:23:40;17.90;1.00
418;DHT22;49;48.530;9.200;2023-04-06T12:26:12;18.00;1.00
418;DHT22;49;48.530;9.200;2023-04-06T12:28:40;18.30;1.00
418;DHT22;49;48.530;9.200;2023-04-06T12:31:07;18.20;1.00
418;DHT22;49;48.530;9.200;2023-04-06T12:33:39;18.20;1.00
418;DHT22;49;48.530;9.200;2023-04-06T12:36:12;18.30;1.00
418;DHT22;49;48.530;9.200;2023-04-06T12:38:39;18.60;1.00
418;DHT22;49;48.530;9.200;2023-04-06T12:41:07;18.60;1.00
418;DHT22;49;48.530;9.200;2023-04-06T12:43:39;18.70;1.90
418;DHT22;49;48.530;9.200;2023-04-06T12:46:06;18.80;2.30
418;DHT22;49;48.530;9.200;2023-04-06T12:48:36;18.90;1.30
418;DHT22;49;48.530;9.200;2023-04-06T12:51:05;19.10;1.00
418;DHT22;49;48.530;9.200;2023-04-06T12:53:33;18.80;1.00
418;DHT22;49;48.530;9.200;2023-04-06T12:56:02;18.80;1.00
418;DHT22;49;48.530;9.200;2023-04-06T12:58:33;19.00;1.00
418;DHT22;49;48.530;9.200;2023-04-06T13:01:06;18.90;1.00
418;DHT22;49;48.530;9.200;2023-04-06T13:03:33;18.80;1.00
418;DHT22;49;48.530;9.200;2023-04-06T13:06:02;18.70;1.00
418;DHT22;49;48.530;9.200;2023-04-06T13:08:42;18.60;1.00
418;DHT22;49;48.530;9.200;2023-04-06T13:11:30;18.20;1.00
418;DHT22;49;48.530;9.200;2023-04-06T13:14:07;18.10;1.00
418;DHT22;49;48.530;9.200;2023-04-06T13:16:42;18.00;1.00
418;DHT22;49;48.530;9.200;2023-04-06T13:19:10;18.30;1.00
418;DHT22;49;48.530;9.200;2023-04-06T13:21:39;18.50;1.00
418;DHT22;49;48.530;9.200;2023-04-06T13:24:07;18.80;1.00
418;DHT22;49;48.530;9.200;2023-04-06T13:26:36;18.80;1.00
418;DHT22;49;48.530;9.200;2023-04-06T13:29:04;18.50;1.00
418;DHT22;49;48.530;9.200;2023-04-06T13:31:33;18.60;1.00
418;DHT22;49;48.530;9.200;2023-04-06T13:34:08;18.80;1.00
418;DHT22;49;48.530;9.200;2023-04-06T13:36:35;19.10;1.00
418;DHT22;49;48.530;9.200;2023-04-06T13:39:03;19.30;1.00
418;DHT22;49;48.530;9.200;2023-04-06T13:41:32;19.20;1.00
418;DHT22;49;48.530;9.200;2023-04-06T13:44:00;18.80;1.00
418;DHT22;49;48.530;9.200;2023-04-06T13:46:28;19.00;1.00
418;DHT22;49;48.530;9.200;2023-04-06T13:48:58;19.50;1.00
418;DHT22;49;48.530;9.200;2023-04-06T13:51:29;19.30;1.00
418;DHT22;49;48.530;9.200;2023-04-06T13:53:57;19.30;1.00
418;DHT22;49;48.530;9.200;2023-04-06T13:56:31;19.40;1.40
418;DHT22;49;48.530;9.200;2023-04-06T13:59:15;19.30;1.00
418;DHT22;49;48.530;9.200;2023-04-06T14:01:43;19.20;1.00
418;DHT22;49;48.530;9.200;2023-04-06T14:04:10;19.20;1.00
418;DHT22;49;48.530;9.200;2023-04-06T14:06:41;19.50;1.00
418;DHT22;49;48.530;9.200;2023-04-06T14:09:11;19.50;1.00
418;DHT22;49;48.530;9.200;2023-04-06T14:11:43;19.10;1.00
418;DHT22;49;48.530;9.200;2023-04-06T14:14:10;19.10;1.00
418;DHT22;49;48.530;9.200;2023-04-06T14:16:38;19.60;1.00
418;DHT22;49;48.530;9.200;2023-04-06T14:19:05;19.70;1.00
418;DHT22;49;48.530;9.200;2023-04-06T14:21:33;19.90;1.00
418;DHT22;49;48.530;9.200;2023-04-06T14:24:05;20.30;1.00
418;DHT22;49;48.530;9.200;2023-04-06T14:26:36;20.00;1.00
418;DHT22;49;48.530;9.200;2023-04-06T14:29:05;20.30;1.00
418;DHT22;49;48.530;9.200;2023-04-06T14:31:34;20.10;1.00
418;DHT22;49;48.530;9.200;2023-04-06T14:34:05;20.00;1.00
418;DHT22;49;48.530;9.200;2023-04-06T14:36:37;19.90;1.00
418;DHT22;49;48.530;9.200;2023-04-06T14:39:09;20.00;1.00
418;DHT22;49;48.530;9.200;2023-04-06T14:41:37;20.10;1.00
418;DHT22;49;48.530;9.200;2023-04-06T14:44:09;20.10;1.00
418;DHT22;49;48.530;9.200;2023-04-06T14:46:50;19.50;1.00
418;DHT22;49;48.530;9.200;2023-04-06T14:49:21;18.70;1.00
418;DHT22;49;48.530;9.200;2023-04-06T14:51:51;19.00;1.00
418;DHT22;49;48.530;9.200;2023-04-06T14:54:24;19.20;1.00
418;DHT22;49;48.530;9.200;2023-04-06T14:56:55;19.40;1.00
418;DHT22;49;48.530;9.200;2023-04-06T14:59:26;19.30;1.00
418;DHT22;49;48.530;9.200;2023-04-06T15:02:06;19.70;1.00
418;DHT22;49;48.530;9.200;2023-04-06T15:04:56;19.50;1.00
418;DHT22;49;48.530;9.200;2023-04-06T15:07:27;19.30;1.00
418;DHT22;49;48.530;9.200;2023-04-06T15:10:14;19.40;1.00
418;DHT22;49;48.530;9.200;2023-04-06T15:12:41;19.00;1.00
418;DHT22;49;48.530;9.200;2023-04-06T15:15:09;18.90;1.00
418;DHT22;49;48.530;9.200;2023-04-06T15:17:36;19.10;1.00
418;DHT22;49;48.530;9.200;2023-04-06T15:20:05;19.00;1.00
418;DHT22;49;48.530;9.200;2023-04-06T15:22:39;19.30;1.00
418;DHT22;49;48.530;9.200;2023-04-06T15:25:11;19.20;1.00
418;DHT22;49;48.530;9.200;2023-04-06T15:27:39;19.20;1.00
418;DHT22;49;48.530;9.200;2023-04-06T15:30:08;19.40;1.00
418;DHT22;49;48.530;9.200;2023-04-06T15:32:35;19.30;1.00
418;DHT22;49;48.530;9.200;2023-04-06T15:35:09;18.80;1.00
418;DHT22;49;48.530;9.200;2023-04-06T15:37:38;19.10;1.00
418;DHT22;49;48.530;9.200;2023-04-06T15:40:11;19.10;1.00
418;DHT22;49;48.530;9.200;2023-04-06T15:42:41;19.20;1.00
418;DHT22;49;48.530;9.200;2023-04-06T15:45:10;19.10;1.00
418;DHT22;49;48.530;9.200;2023-04-06T15:47:39;19.30;1.00
418;DHT22;49;48.530;9.200;2023-04-06T15:50:11;19.30;1.00
418;DHT22;49;48.530;9.200;2023-04-06T15:52:40;19.10;1.00
418;DHT22;49;48.530;9.200;2023-04-06T15:55:13;19.20;1.00
418;DHT22;49;48.530;9.200;2023-04-06T15:57:45;19.30;1.00
418;DHT22;49;48.530;9.200;2023-04-06T16:00:14;19.10;1.00
418;DHT22;49;48.530;9.200;2023-04-06T16:02:44;19.00;1.00
418;DHT22;49;48.530;9.200;2023-04-06T16:05:12;19.20;1.00
418;DHT22;49;48.530;9.200;2023-04-06T16:07:40;19.00;1.00
418;DHT22;49;48.530;9.200;2023-04-06T16:10:13;19.10;1.00
418;DHT22;49;48.530;9.200;2023-04-06T16:12:41;19.10;1.00
418;DHT22;49;48.530;9.200;2023-04-06T16:15:09;19.00;1.00
418;DHT22;49;48.530;9.200;2023-04-06T16:17:36;19.00;1.00
418;DHT22;49;48.530;9.200;2023-04-06T16:20:09;19.10;1.00
418;DHT22;49;48.530;9.200;2023-04-06T16:22:40;19.10;1.00
418;DHT22;49;48.530;9.200;2023-04-06T16:25:10;19.10;1.00
418;DHT22;49;48.530;9.200;2023-04-06T16:27:43;18.80;1.00
418;DHT22;49;48.530;9.200;2023-04-06T16:30:15;18.70;1.00
418;DHT22;49;48.530;9.200;2023-04-06T16:32:43;18.80;1.00
418;DHT22;49;48.530;9.200;2023-04-06T16:35:16;18.90;1.00
418;DHT22;49;48.530;9.200;2023-04-06T16:37:45;18.70;1.00
418;DHT22;49;48.530;9.200;2023-04-06T16:40:12;18.60;1.00
418;DHT22;49;48.530;9.200;2023-04-06T16:42:47;18.70;2.60
418;DHT22;49;48.530;9.200;2023-04-06T16:45:22;18.70;1.00
418;DHT22;49;48.530;9.200;2023-04-06T16:47:53;18.50;1.00
418;DHT22;49;48.530;9.200;2023-04-06T16:50:23;18.50;1.00
418;DHT22;49;48.530;9.200;2023-04-06T16:52:57;18.40;1.00
418;DHT22;49;48.530;9.200;2023-04-06T16:55:27;18.40;1.00
418;DHT22;49;48.530;9.200;2023-04-06T16:58:23;18.20;1.00
418;DHT22;49;48.530;9.200;2023-04-06T17:00:56;17.80;1.00
418;DHT22;49;48.530;9.200;2023-04-06T17:03:26;16.80;1.60
418;DHT22;49;48.530;9.200;2023-04-06T17:05:53;17.00;1.60
418;DHT22;49;48.530;9.200;2023-04-06T17:08:21;17.10;1.50
418;DHT22;49;48.530;9.200;2023-04-06T17:10:48;17.20;1.50
418;DHT22;49;48.530;9.200;2023-04-06T17:13:17;17.20;2.60
418;DHT22;49;48.530;9.200;2023-04-06T17:15:46;16.80;1.80
418;DHT22;49;48.530;9.200;2023-04-06T17:18:18;16.90;2.40
418;DHT22;49;48.530;9.200;2023-04-06T17:20:47;16.70;2.50
418;DHT22;49;48.530;9.200;2023-04-06T17:23:21;16.90;3.80
418;DHT22;49;48.530;9.200;2023-04-06T17:25:50;16.90;2.80
418;DHT22;49;48.530;9.200;2023-04-06T17:28:19;16.80;3.30
418;DHT22;49;48.530;9.200;2023-04-06T17:30:49;16.80;3.30
418;DHT22;49;48.530;9.200;2023-04-06T17:33:17;16.80;3.30
418;DHT22;49;48.530;9.200;2023-04-06T17:35:46;16.90;3.40
418;DHT22;49;48.530;9.200;2023-04-06T17:38:14;17.00;3.30
418;DHT22;49;48.530;9.200;2023-04-06T17:40:41;17.20;3.80
418;DHT22;49;48.530;9.200;2023-04-06T17:43:08;17.10;4.20
418;DHT22;49;48.530;9.200;2023-04-06T17:45:38;16.90;3.40
418;DHT22;49;48.530;9.200;2023-04-06T17:48:07;16.70;4.40
418;DHT22;49;48.530;9.200;2023-04-06T17:50:37;16.70;4.30
418;DHT22;49;48.530;9.200;2023-04-06T17:53:04;16.60;6.50
418;DHT22;49;48.530;9.200;2023-04-06T17:55:33;16.40;5.80
418;DHT22;49;48.530;9.200;2023-04-06T17:58:01;16.30;6.80
418;DHT22;49;48.530;9.200;2023-04-06T18:00:29;16.20;7.20